Weather at Fall City Airport

Public forecast

Using degrees Fahrenheit for public forecast. Weather courtesy of forecast.io.

Closest aviation weather report (METAR) to Fall City Airport

Closest report is Renton Municipal Airport, 14.8 nm (27.4 km) WSW. Retrieved 2021/09/25 17:53 UTC (59 minutes ago):

KRNT 251753Z 17004KT 10SM CLR 19/12 A2989 RMK AO2 SLP125 T01940122 10194 20111 50003

Closest aviation forecast (TAF) to Fall City Airport

Closest forecast is Boeing Field King County International Airport, 17.8 nm (33.0 km) W. Retrieved 2021/09/25 18:24 UTC (28 minutes ago):

TAF KBFI 251721Z 2518/2618 17004KT P6SM SKC FM252100 23006KT P6SM SCT250 FM260900 18004KT P6SM BKN120 FM261400 17007KT P6SM OVC100